Genesee, Michigan
Current Conditions -  °F | °C
As of 1:53 PM on Saturday 25 Oct 2014 (Local Time) from KFNT Reporting Station
Few Clouds Few Clouds  
Wind Chill: 66°   Ceiling: Unl
Heat Index: 66°   Visibility: 10mi
Dew Point: 48°   Wind: 20mph
Humidity: 52%   Direction: 270°W
Pressure: 29.75"   Gusts: 28mph
Location:  43.11°N, 83.62°W
Report Text: KFNT 251753Z 27017G24KT 10SM FEW038 19/09 A2975 RMK AO2 SLP075 T01890089 10189 20117 58018
Loading
Personal Weather Stations






























Interactive Weather Map
Tropical Storm Tracking
New forecast layout! Learn more

10-Day Weather Forecast

Advertisements
Track Severe Weather on mobile